createdAt,value
2017-12-17T00:00:12.838Z,100639.71
2017-12-17T00:02:39.613Z,100643.15
2017-12-17T00:05:06.410Z,100644.67
2017-12-17T00:07:32.213Z,100645.88
2017-12-17T00:09:58.854Z,100650.92
2017-12-17T00:12:25.642Z,100654.24
2017-12-17T00:14:52.461Z,100657.24
2017-12-17T00:17:18.282Z,100655.30
2017-12-17T00:19:45.046Z,100663.58
2017-12-17T00:22:11.757Z,100666.11
2017-12-17T00:24:38.522Z,100665.10
2017-12-17T00:27:04.335Z,100664.41
2017-12-17T00:29:30.939Z,100672.89
2017-12-17T00:31:57.694Z,100673.75
2017-12-17T00:34:23.529Z,100675.16
2017-12-17T00:36:49.369Z,100675.85
2017-12-17T00:39:16.187Z,100679.23
2017-12-17T00:41:42.982Z,100679.47
2017-12-17T00:44:08.805Z,100677.33
2017-12-17T00:46:34.614Z,100678.61
2017-12-17T00:49:00.423Z,100676.84
2017-12-17T00:51:27.119Z,100680.72
2017-12-17T00:53:53.862Z,100685.55
2017-12-17T00:56:20.662Z,100684.72
2017-12-17T00:58:47.671Z,100689.44
2017-12-17T01:01:14.311Z,100693.45
2017-12-17T01:03:40.114Z,100694.75
2017-12-17T01:06:06.929Z,100691.29
2017-12-17T01:08:33.688Z,100695.02
2017-12-17T01:11:00.367Z,100696.16
2017-12-17T01:13:26.218Z,100692.75
2017-12-17T01:15:52.830Z,100694.91
2017-12-17T01:18:19.613Z,100702.41
2017-12-17T01:20:45.423Z,100693.85
2017-12-17T01:23:11.227Z,100697.17
2017-12-17T01:25:37.067Z,100699.64
2017-12-17T01:28:03.843Z,100694.91
2017-12-17T01:30:29.690Z,100700.95
2017-12-17T01:32:55.495Z,100699.86
2017-12-17T01:35:21.353Z,100697.48
2017-12-17T01:37:47.162Z,100704.62
2017-12-17T01:40:12.971Z,100706.42
2017-12-17T01:42:38.778Z,100706.47
2017-12-17T01:45:04.595Z,100711.32
2017-12-17T01:47:30.415Z,100715.39
2017-12-17T01:49:56.227Z,100714.41
2017-12-17T01:52:22.034Z,100715.98
2017-12-17T01:54:47.860Z,100714.87
2017-12-17T01:57:13.681Z,100718.32
2017-12-17T01:59:39.490Z,100716.34
2017-12-17T02:02:05.302Z,100719.63
2017-12-17T02:04:31.115Z,100724.25
2017-12-17T02:06:56.927Z,100724.63
2017-12-17T02:09:22.746Z,100725.94
2017-12-17T02:11:48.726Z,100726.48
2017-12-17T02:14:14.535Z,100728.39
2017-12-17T02:16:41.166Z,100729.98
2017-12-17T02:19:06.985Z,100736.22
2017-12-17T02:21:32.811Z,100743.13
2017-12-17T02:23:58.631Z,100738.63
2017-12-17T02:26:24.446Z,100741.33
2017-12-17T02:28:50.287Z,100740.84
2017-12-17T02:31:16.107Z,100738.20
2017-12-17T02:33:41.963Z,100734.86
2017-12-17T02:36:07.782Z,100747.45
2017-12-17T02:38:33.598Z,100744.92
2017-12-17T02:41:02.272Z,100740.86
2017-12-17T02:43:28.057Z,100751.30
2017-12-17T02:45:53.867Z,100749.39
2017-12-17T02:48:19.687Z,100746.05
2017-12-17T02:50:45.563Z,100749.81
2017-12-17T02:53:11.373Z,100751.19
2017-12-17T02:55:37.182Z,100746.66
2017-12-17T02:58:02.990Z,100746.14
2017-12-17T03:00:28.841Z,100751.07
2017-12-17T03:02:54.646Z,100747.81
2017-12-17T03:05:20.516Z,100745.34
2017-12-17T03:07:46.378Z,100745.11
2017-12-17T03:10:12.185Z,100754.82
2017-12-17T03:12:38.001Z,100749.59
2017-12-17T03:15:03.814Z,100754.82
2017-12-17T03:17:30.586Z,100756.31
2017-12-17T03:19:56.398Z,100762.62
2017-12-17T03:22:23.089Z,100757.28
2017-12-17T03:24:48.950Z,100763.00
2017-12-17T03:27:14.762Z,100761.98
2017-12-17T03:29:41.498Z,100758.61
2017-12-17T03:32:08.373Z,100762.97
2017-12-17T03:34:34.186Z,100765.66
2017-12-17T03:37:00.866Z,100769.09
2017-12-17T03:39:26.719Z,100768.40
2017-12-17T03:41:53.562Z,100763.53
2017-12-17T03:44:19.387Z,100760.23
2017-12-17T03:46:45.985Z,100770.75
2017-12-17T03:49:11.841Z,100769.22
2017-12-17T03:51:38.542Z,100770.59
2017-12-17T03:54:05.345Z,100776.81
2017-12-17T03:56:31.162Z,100776.67
2017-12-17T03:58:57.008Z,100787.73
2017-12-17T04:01:23.728Z,100787.50
2017-12-17T04:03:50.680Z,100798.05
2017-12-17T04:06:17.395Z,100797.24
2017-12-17T04:08:44.158Z,100797.11
2017-12-17T04:11:10.849Z,100801.02
2017-12-17T04:13:36.664Z,100788.22
2017-12-17T04:16:03.413Z,100791.05
2017-12-17T04:18:30.153Z,100792.98
2017-12-17T04:20:56.011Z,100796.50
2017-12-17T04:23:22.755Z,100803.86
2017-12-17T04:25:48.612Z,100801.53
2017-12-17T04:28:14.411Z,100801.61
2017-12-17T04:30:40.264Z,100806.13
2017-12-17T04:33:06.120Z,100812.12
2017-12-17T04:35:31.938Z,100809.48
2017-12-17T04:37:57.746Z,100804.77
2017-12-17T04:40:23.551Z,100807.72
2017-12-17T04:42:50.172Z,100813.14
2017-12-17T04:45:15.974Z,100811.04
2017-12-17T04:47:42.725Z,100814.30
2017-12-17T04:50:08.616Z,100825.85
2017-12-17T04:52:35.504Z,100829.87
2017-12-17T04:55:01.306Z,100832.78
2017-12-17T04:57:27.113Z,100834.33
2017-12-17T04:59:53.902Z,100832.83
2017-12-17T05:02:19.726Z,100832.30
2017-12-17T05:04:45.525Z,100831.52
2017-12-17T05:07:11.390Z,100835.86
2017-12-17T05:09:37.205Z,100836.61
2017-12-17T05:12:03.016Z,100843.94
2017-12-17T05:14:28.821Z,100842.02
2017-12-17T05:16:54.630Z,100841.32
2017-12-17T05:19:20.435Z,100836.63
2017-12-17T05:21:46.247Z,100867.02
2017-12-17T05:24:12.856Z,100868.30
2017-12-17T05:26:38.655Z,100869.56
2017-12-17T05:29:04.474Z,100871.54
2017-12-17T05:31:30.287Z,100880.23
2017-12-17T05:33:56.097Z,100886.28
2017-12-17T05:36:21.922Z,100889.13
2017-12-17T05:38:47.734Z,100889.66
2017-12-17T05:41:13.551Z,100886.53
2017-12-17T05:43:39.357Z,100893.81
2017-12-17T05:46:05.174Z,100898.31
2017-12-17T05:48:31.911Z,100901.70
2017-12-17T05:50:57.774Z,100902.73
2017-12-17T05:53:23.583Z,100911.22
2017-12-17T05:55:49.401Z,100914.77
2017-12-17T05:58:16.178Z,100916.29
2017-12-17T06:00:42.000Z,100922.77
2017-12-17T06:03:07.827Z,100920.30
2017-12-17T06:05:34.578Z,100925.09
2017-12-17T06:08:00.460Z,100923.07
2017-12-17T06:10:26.338Z,100926.54
2017-12-17T06:12:52.982Z,100925.16
2017-12-17T06:15:18.885Z,100919.63
2017-12-17T06:17:44.710Z,100920.34
2017-12-17T06:20:10.634Z,100918.50
2017-12-17T06:22:36.550Z,100928.66
2017-12-17T06:25:02.511Z,100925.36
2017-12-17T06:27:28.328Z,100932.00
2017-12-17T06:29:55.099Z,100932.61
2017-12-17T06:32:20.914Z,100936.36
2017-12-17T06:34:46.723Z,100933.38
2017-12-17T06:37:12.539Z,100932.79
2017-12-17T06:39:38.353Z,100937.80
2017-12-17T06:42:05.109Z,100930.06
2017-12-17T06:44:30.934Z,100938.86
2017-12-17T06:46:57.742Z,100942.30
2017-12-17T06:49:24.540Z,100941.26
2017-12-17T06:51:50.360Z,100945.23
2017-12-17T06:54:17.119Z,100948.36
2017-12-17T06:56:42.972Z,100959.96
2017-12-17T06:59:08.813Z,100954.25
2017-12-17T07:01:35.471Z,100964.57
2017-12-17T07:04:01.440Z,100965.19
2017-12-17T07:06:27.255Z,100965.77
2017-12-17T07:08:53.894Z,100974.16
2017-12-17T07:11:19.718Z,100977.70
2017-12-17T07:13:46.490Z,100979.87
2017-12-17T07:16:12.302Z,100986.20
2017-12-17T07:18:38.964Z,100985.59
2017-12-17T07:21:04.832Z,100992.88
2017-12-17T07:23:31.520Z,100991.22
2017-12-17T07:25:57.335Z,100998.43
2017-12-17T07:28:23.142Z,101000.02
2017-12-17T07:30:48.955Z,101008.58
2017-12-17T07:33:14.774Z,101009.22
2017-12-17T07:35:40.595Z,101014.55
2017-12-17T07:38:06.418Z,101017.89
2017-12-17T07:40:32.488Z,101023.94
2017-12-17T07:42:58.327Z,101025.06
2017-12-17T07:45:24.150Z,101034.57
2017-12-17T07:47:50.122Z,101036.73
2017-12-17T07:50:21.773Z,101037.20
2017-12-17T07:52:48.069Z,101042.93
2017-12-17T07:55:16.251Z,101058.09
2017-12-17T07:57:42.186Z,101055.10
2017-12-17T08:00:08.155Z,101056.91
2017-12-17T08:02:34.006Z,101053.72
2017-12-17T08:05:00.623Z,101064.09
2017-12-17T08:12:45.461Z,101072.03
2017-12-17T08:15:12.185Z,101071.83
2017-12-17T08:17:39.686Z,101077.03
2017-12-17T08:20:05.717Z,101080.73
2017-12-17T08:22:32.470Z,101093.38
2017-12-17T08:24:58.354Z,101085.47
2017-12-17T08:27:25.039Z,101090.83
2017-12-17T08:29:51.805Z,101098.62
2017-12-17T08:32:18.342Z,101101.14
2017-12-17T08:34:44.171Z,101103.77
2017-12-17T08:37:10.065Z,101105.48
2017-12-17T08:39:35.882Z,101110.40
2017-12-17T08:42:01.694Z,101108.22
2017-12-17T08:44:27.558Z,101105.06
2017-12-17T08:46:53.387Z,101116.78
2017-12-17T08:49:19.203Z,101120.61
2017-12-17T08:51:45.969Z,101124.05
2017-12-17T08:54:11.851Z,101129.41
2017-12-17T08:56:37.668Z,101137.12
2017-12-17T08:59:03.493Z,101139.77
2017-12-17T09:01:29.314Z,101146.92
2017-12-17T09:03:55.161Z,101148.42
2017-12-17T09:06:20.974Z,101152.43
2017-12-17T09:08:47.582Z,101157.25
2017-12-17T09:11:13.409Z,101163.23
2017-12-17T09:13:40.482Z,101163.94
2017-12-17T09:16:06.325Z,101167.08
2017-12-17T09:18:32.286Z,101166.20
2017-12-17T09:20:58.145Z,101172.81
2017-12-17T09:23:24.023Z,101175.16
2017-12-17T09:25:49.967Z,101177.68
2017-12-17T09:28:15.781Z,101179.63
2017-12-17T09:30:41.605Z,101173.04
2017-12-17T09:33:07.414Z,101183.94
2017-12-17T09:35:33.358Z,101180.45
2017-12-17T09:38:07.500Z,101181.20
2017-12-17T09:40:33.494Z,101179.20
2017-12-17T09:42:59.349Z,101176.96
2017-12-17T09:45:25.212Z,101182.08
2017-12-17T09:47:51.031Z,101188.05
2017-12-17T09:50:16.847Z,101185.27
2017-12-17T09:52:42.690Z,101197.77
2017-12-17T09:55:08.511Z,101192.28
2017-12-17T09:57:34.375Z,101198.62
2017-12-17T10:00:00.201Z,101194.36
2017-12-17T10:02:26.906Z,101196.83
2017-12-17T10:04:52.782Z,101207.94
2017-12-17T10:07:18.609Z,101211.64
2017-12-17T10:09:44.422Z,101212.51
2017-12-17T10:12:10.398Z,101209.75
2017-12-17T10:14:36.432Z,101200.99
2017-12-17T10:17:02.246Z,101198.36
2017-12-17T10:19:29.081Z,101195.42
2017-12-17T10:21:55.090Z,101194.55
2017-12-17T10:24:20.910Z,101205.89
2017-12-17T10:26:47.686Z,101206.06
2017-12-17T10:29:13.959Z,101209.95
2017-12-17T10:31:39.779Z,101217.08
2017-12-17T10:34:05.600Z,101215.60
2017-12-17T10:36:31.496Z,101214.36
2017-12-17T10:38:57.359Z,101218.15
2017-12-17T10:41:24.052Z,101220.61
2017-12-17T10:43:49.949Z,101212.04
2017-12-17T10:46:16.646Z,101212.54
2017-12-17T10:48:43.627Z,101213.05
2017-12-17T10:51:09.434Z,101218.70
2017-12-17T10:53:38.659Z,101222.95
2017-12-17T10:56:05.442Z,101224.28
2017-12-17T10:58:31.395Z,101227.28
2017-12-17T11:00:57.225Z,101238.43
2017-12-17T11:03:23.250Z,101244.45
2017-12-17T11:05:49.084Z,101232.89
2017-12-17T11:08:14.907Z,101240.00
2017-12-17T11:10:40.754Z,101238.84
2017-12-17T11:13:06.586Z,101243.22
2017-12-17T11:15:33.422Z,101247.33
2017-12-17T11:17:59.247Z,101253.22
2017-12-17T11:20:25.161Z,101258.11
2017-12-17T11:22:50.978Z,101263.87
2017-12-17T11:25:16.841Z,101259.88
2017-12-17T11:27:43.045Z,101259.19
2017-12-17T11:30:08.875Z,101261.69
2017-12-17T11:32:34.703Z,101266.15
2017-12-17T11:35:00.525Z,101269.85
2017-12-17T11:37:27.222Z,101267.13
2017-12-17T11:39:53.062Z,101274.75
2017-12-17T11:42:18.895Z,101276.16
2017-12-17T11:44:44.716Z,101276.40
2017-12-17T11:47:10.563Z,101287.05
2017-12-17T11:49:36.406Z,101284.59
2017-12-17T11:52:02.256Z,101288.75
2017-12-17T11:54:28.102Z,101288.95
2017-12-17T11:56:53.918Z,101294.80
2017-12-17T11:59:20.711Z,101285.27
2017-12-17T12:01:46.532Z,101285.16
2017-12-17T12:04:18.407Z,101290.84
2017-12-17T12:06:44.668Z,101291.89
2017-12-17T12:09:11.383Z,101293.97
2017-12-17T12:11:38.118Z,101296.91
2017-12-17T12:14:03.984Z,101292.56
2017-12-17T12:16:29.814Z,101297.18
2017-12-17T12:18:55.626Z,101301.19
2017-12-17T12:21:21.445Z,101308.37
2017-12-17T12:23:47.302Z,101307.67
2017-12-17T12:26:13.119Z,101312.92
2017-12-17T12:28:38.934Z,101315.53
2017-12-17T12:31:05.754Z,101318.09
2017-12-17T12:33:31.718Z,101324.69
2017-12-17T12:36:09.351Z,101317.88
2017-12-17T12:38:35.466Z,101328.96
2017-12-17T12:41:01.291Z,101327.10
2017-12-17T12:43:27.112Z,101327.07
2017-12-17T12:45:52.943Z,101328.02
2017-12-17T12:48:19.812Z,101328.75
2017-12-17T12:50:45.629Z,101328.59
2017-12-17T12:53:12.480Z,101328.24
2017-12-17T12:55:39.161Z,101331.87
2017-12-17T12:58:05.214Z,101335.45
2017-12-17T13:00:31.098Z,101338.95
2017-12-17T13:02:57.020Z,101339.66
2017-12-17T13:05:22.942Z,101342.27
2017-12-17T13:07:48.763Z,101338.27
2017-12-17T13:10:14.622Z,101346.62
2017-12-17T13:12:41.214Z,101342.61
2017-12-17T13:15:07.066Z,101343.84
2017-12-17T13:17:32.889Z,101347.98
2017-12-17T13:19:58.757Z,101352.28
2017-12-17T13:22:24.563Z,101352.68
2017-12-17T13:24:51.419Z,101352.83
2017-12-17T13:27:17.239Z,101363.40
2017-12-17T13:29:44.007Z,101368.24
2017-12-17T13:32:09.815Z,101372.51
2017-12-17T13:34:35.795Z,101376.18
2017-12-17T13:37:01.623Z,101379.37
2017-12-17T13:39:27.439Z,101381.39
2017-12-17T13:41:53.291Z,101378.89
2017-12-17T13:44:19.248Z,101384.77
2017-12-17T13:46:46.053Z,101387.17
2017-12-17T13:49:11.986Z,101383.29
2017-12-17T13:51:37.864Z,101387.01
2017-12-17T13:54:04.608Z,101390.50
2017-12-17T13:56:30.427Z,101384.94
2017-12-17T13:58:56.268Z,101390.59
2017-12-17T14:01:22.370Z,101391.02
2017-12-17T14:03:48.191Z,101390.48
2017-12-17T14:06:14.075Z,101398.20
2017-12-17T14:08:40.785Z,101403.80
2017-12-17T14:11:07.842Z,101407.42
2017-12-17T14:13:34.744Z,101407.76
2017-12-17T14:16:00.595Z,101415.77
2017-12-17T14:18:26.415Z,101417.61
2017-12-17T14:20:52.283Z,101421.94
2017-12-17T14:23:18.398Z,101420.55
2017-12-17T14:25:45.089Z,101424.21
2017-12-17T14:28:10.962Z,101424.80
2017-12-17T14:30:36.978Z,101432.95
2017-12-17T14:33:02.852Z,101440.50
2017-12-17T14:35:28.760Z,101440.33
2017-12-17T14:37:54.870Z,101443.59
2017-12-17T14:40:21.528Z,101453.42
2017-12-17T14:42:47.373Z,101449.30
2017-12-17T14:45:14.298Z,101458.95
2017-12-17T14:47:40.904Z,101459.53
2017-12-17T14:50:06.940Z,101470.17
2017-12-17T14:52:32.783Z,101469.50
2017-12-17T14:54:59.534Z,101477.25
2017-12-17T14:57:25.352Z,101480.95
2017-12-17T14:59:51.218Z,101486.28
2017-12-17T15:02:17.055Z,101489.30
2017-12-17T15:04:42.867Z,101483.77
2017-12-17T15:07:08.699Z,101490.83
2017-12-17T15:09:34.522Z,101490.20
2017-12-17T15:12:01.435Z,101495.94
2017-12-17T15:14:27.255Z,101496.62
2017-12-17T15:16:53.071Z,101494.81
2017-12-17T15:19:18.891Z,101503.05
2017-12-17T15:21:44.705Z,101505.30
2017-12-17T15:24:11.370Z,101505.73
2017-12-17T15:26:38.214Z,101519.92
2017-12-17T15:29:05.014Z,101524.41
2017-12-17T15:31:31.826Z,101528.47
2017-12-17T15:33:57.638Z,101517.38
2017-12-17T15:36:23.505Z,101526.09
2017-12-17T15:38:49.317Z,101526.11
2017-12-17T15:41:15.176Z,101532.13
2017-12-17T15:43:41.050Z,101535.52
2017-12-17T15:46:06.878Z,101538.42
2017-12-17T15:48:32.689Z,101541.08
2017-12-17T15:50:58.503Z,101554.61
2017-12-17T15:53:24.373Z,101548.84
2017-12-17T15:55:50.185Z,101555.11
2017-12-17T15:58:16.110Z,101556.38
2017-12-17T16:00:41.939Z,101561.38
2017-12-17T16:03:08.577Z,101569.76
2017-12-17T16:05:34.402Z,101576.56
2017-12-17T16:08:00.230Z,101583.10
2017-12-17T16:10:26.050Z,101581.98
2017-12-17T16:12:51.866Z,101581.11
2017-12-17T16:15:17.679Z,101590.42
2017-12-17T16:17:44.469Z,101586.77
2017-12-17T16:20:11.277Z,101590.03
2017-12-17T16:22:37.089Z,101586.53
2017-12-17T16:25:02.962Z,101597.88
2017-12-17T16:27:28.781Z,101595.66
2017-12-17T16:29:54.630Z,101599.78
2017-12-17T16:32:20.484Z,101601.36
2017-12-17T16:34:47.136Z,101611.52
2017-12-17T16:37:13.832Z,101603.66
2017-12-17T16:39:39.679Z,101610.02
2017-12-17T16:42:05.486Z,101611.20
2017-12-17T16:44:31.350Z,101620.47
2017-12-17T16:46:57.167Z,101630.13
2017-12-17T16:49:22.986Z,101624.95
2017-12-17T16:51:49.667Z,101631.27
2017-12-17T16:54:15.626Z,101634.66
2017-12-17T16:56:41.626Z,101634.05
2017-12-17T16:59:07.663Z,101632.78
2017-12-17T17:01:33.619Z,101633.80
2017-12-17T17:03:59.499Z,101637.20
2017-12-17T17:06:25.305Z,101646.45
2017-12-17T17:08:51.106Z,101644.37
2017-12-17T17:11:16.906Z,101648.16
2017-12-17T17:13:42.724Z,101654.02
2017-12-17T17:16:08.538Z,101652.16
2017-12-17T17:18:34.390Z,101648.14
2017-12-17T17:21:00.194Z,101657.16
2017-12-17T17:23:26.012Z,101654.98
2017-12-17T17:25:52.693Z,101659.66
2017-12-17T17:28:18.550Z,101665.16
2017-12-17T17:30:44.366Z,101669.67
2017-12-17T17:33:10.354Z,101675.92
2017-12-17T17:35:36.163Z,101670.49
2017-12-17T17:38:01.970Z,101681.64
2017-12-17T17:40:27.829Z,101682.23
2017-12-17T17:42:53.640Z,101687.20
2017-12-17T17:45:19.459Z,101683.77
2017-12-17T17:47:46.152Z,101689.17
2017-12-17T17:50:13.179Z,101696.73
2017-12-17T17:52:38.990Z,101703.10
2017-12-17T17:55:05.702Z,101700.85
2017-12-17T17:57:31.574Z,101713.38
2017-12-17T17:59:57.793Z,101710.75
2017-12-17T18:02:23.790Z,101709.24
2017-12-17T18:04:49.609Z,101718.48
2017-12-17T18:07:16.222Z,101709.16
2017-12-17T18:09:42.963Z,101707.86
2017-12-17T18:12:08.774Z,101708.55
2017-12-17T18:14:34.639Z,101711.36
2017-12-17T18:17:00.495Z,101711.36
2017-12-17T18:19:26.301Z,101709.05
2017-12-17T18:21:52.107Z,101709.94
2017-12-17T18:24:17.929Z,101712.77
2017-12-17T18:26:43.742Z,101713.52
2017-12-17T18:29:09.590Z,101713.93
2017-12-17T18:31:35.470Z,101712.75
2017-12-17T18:34:01.282Z,101712.68
2017-12-17T18:36:27.930Z,101707.91
2017-12-17T18:38:54.710Z,101712.27
2017-12-17T18:41:20.550Z,101711.87
2017-12-17T18:43:46.362Z,101716.55
2017-12-17T18:46:12.175Z,101712.66
2017-12-17T18:48:38.014Z,101714.92
2017-12-17T18:51:03.818Z,101709.69
2017-12-17T18:53:30.690Z,101707.25
2017-12-17T18:55:56.509Z,101709.81
2017-12-17T18:58:23.294Z,101708.64
2017-12-17T19:00:49.119Z,101706.16
2017-12-17T19:03:14.943Z,101713.65
2017-12-17T19:05:41.630Z,101720.89
2017-12-17T19:08:08.409Z,101729.25
2017-12-17T19:10:34.218Z,101724.98
2017-12-17T19:13:00.026Z,101721.25
2017-12-17T19:15:25.850Z,101723.91
2017-12-17T19:17:51.668Z,101724.34
2017-12-17T19:20:18.558Z,101721.86
2017-12-17T19:22:45.327Z,101721.63
2017-12-17T19:25:12.124Z,101722.84
2017-12-17T19:27:37.938Z,101723.05
2017-12-17T19:30:03.763Z,101729.57
2017-12-17T19:32:30.427Z,101731.56
2017-12-17T19:34:57.200Z,101730.37
2017-12-17T19:37:23.007Z,101730.00
2017-12-17T19:39:48.836Z,101734.31
2017-12-17T19:42:14.649Z,101743.08
2017-12-17T19:44:40.463Z,101741.30
2017-12-17T19:47:06.277Z,101737.66
2017-12-17T19:49:32.091Z,101743.86
2017-12-17T19:51:57.908Z,101751.00
2017-12-17T19:54:23.720Z,101750.91
2017-12-17T19:56:49.630Z,101754.31
2017-12-17T19:59:16.302Z,101755.77
2017-12-17T20:01:42.124Z,101756.86
2017-12-17T20:04:08.221Z,101764.60
2017-12-17T20:06:35.006Z,101759.18
2017-12-17T20:09:01.862Z,101764.64
2017-12-17T20:11:27.682Z,101768.20
2017-12-17T20:13:54.319Z,101771.67
2017-12-17T20:16:21.097Z,101772.80
2017-12-17T20:18:46.929Z,101782.39
2017-12-17T20:21:12.769Z,101782.52
2017-12-17T20:23:39.450Z,101778.84
2017-12-17T20:26:05.315Z,101782.06
2017-12-17T20:28:31.197Z,101789.83
2017-12-17T20:30:57.918Z,101785.20
2017-12-17T20:33:23.750Z,101783.26
2017-12-17T20:35:49.582Z,101784.02
2017-12-17T20:38:15.395Z,101781.07
2017-12-17T20:40:41.211Z,101780.88
2017-12-17T20:43:07.062Z,101779.31
2017-12-17T20:45:32.877Z,101781.59
2017-12-17T20:47:58.734Z,101785.33
2017-12-17T20:50:24.585Z,101787.52
2017-12-17T20:52:50.465Z,101782.37
2017-12-17T20:55:16.278Z,101785.50
2017-12-17T20:57:42.094Z,101788.55
2017-12-17T21:00:08.918Z,101793.31
2017-12-17T21:02:35.540Z,101802.19
2017-12-17T21:05:01.346Z,101805.97
2017-12-17T21:07:28.083Z,101810.75
2017-12-17T21:09:53.890Z,101811.23
2017-12-17T21:12:20.490Z,101821.31
2017-12-17T21:14:46.351Z,101814.46
2017-12-17T21:17:12.169Z,101820.40
2017-12-17T21:19:38.869Z,101823.47
2017-12-17T21:22:04.674Z,101819.69
2017-12-17T21:24:30.527Z,101817.20
2017-12-17T21:26:57.325Z,101818.77
2017-12-17T21:29:24.019Z,101816.56
2017-12-17T21:31:50.706Z,101820.21
2017-12-17T21:34:17.356Z,101817.22
2017-12-17T21:36:43.164Z,101813.70
2017-12-17T21:39:13.571Z,101819.77
2017-12-17T21:41:40.290Z,101816.83
2017-12-17T21:44:07.135Z,101819.52
2017-12-17T21:46:33.859Z,101823.05
2017-12-17T21:48:59.676Z,101823.09
2017-12-17T21:51:26.702Z,101827.01
2017-12-17T21:53:52.554Z,101825.81
2017-12-17T21:56:18.717Z,101832.66
2017-12-17T21:58:45.429Z,101830.94
2017-12-17T22:01:11.233Z,101827.62
2017-12-17T22:03:37.299Z,101833.80
2017-12-17T22:06:03.779Z,101835.49
2017-12-17T22:08:29.592Z,101838.27
2017-12-17T22:10:57.416Z,101843.23
2017-12-17T22:13:24.158Z,101842.20
2017-12-17T22:15:52.243Z,101845.94
2017-12-17T22:18:18.098Z,101847.15
2017-12-17T22:20:45.664Z,101846.06
2017-12-17T22:23:11.509Z,101854.88
2017-12-17T22:25:38.181Z,101850.93
2017-12-17T22:28:04.299Z,101847.44
2017-12-17T22:30:31.254Z,101849.84
2017-12-17T22:32:57.625Z,101851.59
2017-12-17T22:35:23.910Z,101843.29
2017-12-17T22:37:51.157Z,101841.33
2017-12-17T22:40:17.807Z,101833.05
2017-12-17T22:42:46.401Z,101836.63
2017-12-17T22:45:12.338Z,101841.23
2017-12-17T22:47:40.340Z,101840.30
2017-12-17T22:50:06.216Z,101833.03
2017-12-17T22:52:32.042Z,101837.05
2017-12-17T22:54:57.853Z,101830.13
2017-12-17T22:57:23.692Z,101833.52
2017-12-17T22:59:51.985Z,101826.31
2017-12-17T23:02:17.805Z,101827.11
2017-12-17T23:04:43.633Z,101823.17
2017-12-17T23:07:09.450Z,101821.85
2017-12-17T23:09:35.266Z,101821.08
2017-12-17T23:12:01.232Z,101828.06
2017-12-17T23:14:27.055Z,101831.89
2017-12-17T23:16:52.875Z,101833.52
2017-12-17T23:19:18.687Z,101832.09
2017-12-17T23:21:44.498Z,101834.77
2017-12-17T23:24:10.316Z,101827.25
2017-12-17T23:26:36.959Z,101824.84
2017-12-17T23:29:03.749Z,101823.69
2017-12-17T23:31:29.567Z,101826.27
2017-12-17T23:33:55.384Z,101828.34
2017-12-17T23:36:21.187Z,101821.00
2017-12-17T23:38:47.042Z,101829.14
2017-12-17T23:41:12.870Z,101830.92
2017-12-17T23:43:38.685Z,101835.88
2017-12-17T23:46:04.504Z,101838.48
2017-12-17T23:48:30.362Z,101842.47
2017-12-17T23:50:56.192Z,101836.09
2017-12-17T23:53:22.018Z,101839.86
2017-12-17T23:55:47.874Z,101833.98
2017-12-17T23:58:14.692Z,101829.45
